sensor_id;sensor_type;location;lat;lon;timestamp;temperature;humidity
33271;DHT22;53180;51.344;6.152;2023-04-16T00:01:21;8.80;83.60
33271;DHT22;53180;51.344;6.152;2023-04-16T00:03:51;8.80;83.50
33271;DHT22;53180;51.344;6.152;2023-04-16T00:06:21;8.90;83.60
33271;DHT22;53180;51.344;6.152;2023-04-16T00:08:50;8.90;83.80
33271;DHT22;53180;51.344;6.152;2023-04-16T00:11:18;8.90;83.70
33271;DHT22;53180;51.344;6.152;2023-04-16T00:13:46;8.90;83.90
33271;DHT22;53180;51.344;6.152;2023-04-16T00:16:15;8.80;83.80
33271;DHT22;53180;51.344;6.152;2023-04-16T00:18:43;8.90;83.90
33271;DHT22;53180;51.344;6.152;2023-04-16T00:21:13;8.80;84.10
33271;DHT22;53180;51.344;6.152;2023-04-16T00:23:41;8.80;84.00
33271;DHT22;53180;51.344;6.152;2023-04-16T00:26:10;8.80;84.00
33271;DHT22;53180;51.344;6.152;2023-04-16T00:28:38;8.80;84.10
33271;DHT22;53180;51.344;6.152;2023-04-16T00:31:07;8.80;84.10
33271;DHT22;53180;51.344;6.152;2023-04-16T00:33:35;8.80;84.20
33271;DHT22;53180;51.344;6.152;2023-04-16T00:36:04;8.80;84.20
33271;DHT22;53180;51.344;6.152;2023-04-16T00:38:34;8.80;84.30
33271;DHT22;53180;51.344;6.152;2023-04-16T00:41:02;8.80;84.30
33271;DHT22;53180;51.344;6.152;2023-04-16T00:43:31;8.70;84.40
33271;DHT22;53180;51.344;6.152;2023-04-16T00:45:59;8.80;84.40
33271;DHT22;53180;51.344;6.152;2023-04-16T00:48:27;8.80;84.50
33271;DHT22;53180;51.344;6.152;2023-04-16T00:50:58;8.80;84.40
33271;DHT22;53180;51.344;6.152;2023-04-16T00:53:28;8.80;84.40
33271;DHT22;53180;51.344;6.152;2023-04-16T00:55:57;8.80;84.40
33271;DHT22;53180;51.344;6.152;2023-04-16T00:58:26;8.80;84.40
33271;DHT22;53180;51.344;6.152;2023-04-16T01:00:56;8.80;84.50
33271;DHT22;53180;51.344;6.152;2023-04-16T01:03:31;8.80;84.50
33271;DHT22;53180;51.344;6.152;2023-04-16T01:06:05;8.80;84.70
33271;DHT22;53180;51.344;6.152;2023-04-16T01:08:34;8.80;84.80
33271;DHT22;53180;51.344;6.152;2023-04-16T01:11:04;8.80;85.10
33271;DHT22;53180;51.344;6.152;2023-04-16T01:13:33;8.80;84.90
33271;DHT22;53180;51.344;6.152;2023-04-16T01:16:05;8.80;85.10
33271;DHT22;53180;51.344;6.152;2023-04-16T01:18:34;8.80;85.30
33271;DHT22;53180;51.344;6.152;2023-04-16T01:21:05;8.80;85.40
33271;DHT22;53180;51.344;6.152;2023-04-16T01:23:34;8.80;85.30
33271;DHT22;53180;51.344;6.152;2023-04-16T01:26:02;8.80;85.50
33271;DHT22;53180;51.344;6.152;2023-04-16T01:28:30;8.80;85.40
33271;DHT22;53180;51.344;6.152;2023-04-16T01:30:58;8.80;85.60
33271;DHT22;53180;51.344;6.152;2023-04-16T01:33:27;8.80;85.70
33271;DHT22;53180;51.344;6.152;2023-04-16T01:35:55;8.80;85.80
33271;DHT22;53180;51.344;6.152;2023-04-16T01:38:25;8.80;85.50
33271;DHT22;53180;51.344;6.152;2023-04-16T01:40:55;8.80;85.70
33271;DHT22;53180;51.344;6.152;2023-04-16T01:43:25;8.80;85.90
33271;DHT22;53180;51.344;6.152;2023-04-16T01:46:06;8.80;86.00
33271;DHT22;53180;51.344;6.152;2023-04-16T01:48:39;8.90;86.00
33271;DHT22;53180;51.344;6.152;2023-04-16T01:51:07;8.80;86.00
33271;DHT22;53180;51.344;6.152;2023-04-16T01:53:37;8.90;85.90
33271;DHT22;53180;51.344;6.152;2023-04-16T01:56:06;8.90;86.00
33271;DHT22;53180;51.344;6.152;2023-04-16T01:58:34;8.90;86.20
33271;DHT22;53180;51.344;6.152;2023-04-16T02:01:03;8.90;86.30
33271;DHT22;53180;51.344;6.152;2023-04-16T02:03:32;8.90;86.00
33271;DHT22;53180;51.344;6.152;2023-04-16T02:06:01;8.90;86.20
33271;DHT22;53180;51.344;6.152;2023-04-16T02:08:29;8.90;86.20
33271;DHT22;53180;51.344;6.152;2023-04-16T02:11:00;8.90;86.30
33271;DHT22;53180;51.344;6.152;2023-04-16T02:13:28;8.90;86.50
33271;DHT22;53180;51.344;6.152;2023-04-16T02:15:56;8.90;86.40
33271;DHT22;53180;51.344;6.152;2023-04-16T02:18:25;9.00;86.50
33271;DHT22;53180;51.344;6.152;2023-04-16T02:20:53;9.00;86.50
33271;DHT22;53180;51.344;6.152;2023-04-16T02:23:21;8.90;86.70
33271;DHT22;53180;51.344;6.152;2023-04-16T02:25:49;8.90;86.80
33271;DHT22;53180;51.344;6.152;2023-04-16T02:28:19;8.90;86.80
33271;DHT22;53180;51.344;6.152;2023-04-16T02:30:47;9.00;86.90
33271;DHT22;53180;51.344;6.152;2023-04-16T02:33:15;9.00;86.70
33271;DHT22;53180;51.344;6.152;2023-04-16T02:35:44;9.00;86.80
33271;DHT22;53180;51.344;6.152;2023-04-16T02:38:14;9.00;86.90
33271;DHT22;53180;51.344;6.152;2023-04-16T02:40:42;9.00;86.90
33271;DHT22;53180;51.344;6.152;2023-04-16T02:43:10;9.00;86.80
33271;DHT22;53180;51.344;6.152;2023-04-16T02:45:40;9.00;86.90
33271;DHT22;53180;51.344;6.152;2023-04-16T02:48:09;9.00;86.90
33271;DHT22;53180;51.344;6.152;2023-04-16T02:50:37;9.00;86.90
33271;DHT22;53180;51.344;6.152;2023-04-16T02:53:05;9.00;86.90
33271;DHT22;53180;51.344;6.152;2023-04-16T02:55:33;9.00;86.90
33271;DHT22;53180;51.344;6.152;2023-04-16T02:58:02;9.00;86.90
33271;DHT22;53180;51.344;6.152;2023-04-16T03:00:30;9.00;86.90
33271;DHT22;53180;51.344;6.152;2023-04-16T03:02:59;9.10;87.00
33271;DHT22;53180;51.344;6.152;2023-04-16T03:05:28;9.00;87.20
33271;DHT22;53180;51.344;6.152;2023-04-16T03:07:56;9.10;87.30
33271;DHT22;53180;51.344;6.152;2023-04-16T03:10:24;9.10;87.20
33271;DHT22;53180;51.344;6.152;2023-04-16T03:12:53;9.00;87.40
33271;DHT22;53180;51.344;6.152;2023-04-16T03:15:21;9.00;87.40
33271;DHT22;53180;51.344;6.152;2023-04-16T03:17:49;9.00;87.50
33271;DHT22;53180;51.344;6.152;2023-04-16T03:20:19;9.00;87.50
33271;DHT22;53180;51.344;6.152;2023-04-16T03:22:48;9.00;87.60
33271;DHT22;53180;51.344;6.152;2023-04-16T03:25:18;9.00;87.80
33271;DHT22;53180;51.344;6.152;2023-04-16T03:27:46;9.00;87.70
33271;DHT22;53180;51.344;6.152;2023-04-16T03:30:14;9.00;87.70
33271;DHT22;53180;51.344;6.152;2023-04-16T03:32:43;9.00;87.80
33271;DHT22;53180;51.344;6.152;2023-04-16T03:35:11;9.00;87.70
33271;DHT22;53180;51.344;6.152;2023-04-16T03:37:41;9.00;87.80
33271;DHT22;53180;51.344;6.152;2023-04-16T03:40:10;9.00;88.00
33271;DHT22;53180;51.344;6.152;2023-04-16T03:42:39;9.10;87.90
33271;DHT22;53180;51.344;6.152;2023-04-16T03:45:07;9.00;87.90
33271;DHT22;53180;51.344;6.152;2023-04-16T03:47:36;9.10;87.90
33271;DHT22;53180;51.344;6.152;2023-04-16T03:50:05;9.10;87.80
33271;DHT22;53180;51.344;6.152;2023-04-16T03:52:34;9.10;88.00
33271;DHT22;53180;51.344;6.152;2023-04-16T03:55:04;9.10;87.90
33271;DHT22;53180;51.344;6.152;2023-04-16T03:57:33;9.10;88.00
33271;DHT22;53180;51.344;6.152;2023-04-16T04:00:01;9.10;88.00
33271;DHT22;53180;51.344;6.152;2023-04-16T04:02:30;9.10;88.00
33271;DHT22;53180;51.344;6.152;2023-04-16T04:04:58;9.10;88.10
33271;DHT22;53180;51.344;6.152;2023-04-16T04:07:26;9.10;88.10
33271;DHT22;53180;51.344;6.152;2023-04-16T04:09:55;9.10;88.20
33271;DHT22;53180;51.344;6.152;2023-04-16T04:12:25;9.10;88.20
33271;DHT22;53180;51.344;6.152;2023-04-16T04:14:53;9.10;88.30
33271;DHT22;53180;51.344;6.152;2023-04-16T04:17:21;9.10;88.30
33271;DHT22;53180;51.344;6.152;2023-04-16T04:19:49;9.10;88.20
33271;DHT22;53180;51.344;6.152;2023-04-16T04:22:27;9.10;88.20
33271;DHT22;53180;51.344;6.152;2023-04-16T04:24:55;9.10;88.30
33271;DHT22;53180;51.344;6.152;2023-04-16T04:27:25;9.10;88.30
33271;DHT22;53180;51.344;6.152;2023-04-16T04:29:53;9.10;88.40
33271;DHT22;53180;51.344;6.152;2023-04-16T04:32:21;9.00;88.50
33271;DHT22;53180;51.344;6.152;2023-04-16T04:34:50;9.00;88.50
33271;DHT22;53180;51.344;6.152;2023-04-16T04:37:18;9.10;88.40
33271;DHT22;53180;51.344;6.152;2023-04-16T04:39:46;9.00;88.40
33271;DHT22;53180;51.344;6.152;2023-04-16T04:42:16;9.10;88.50
33271;DHT22;53180;51.344;6.152;2023-04-16T04:44:46;9.10;88.50
33271;DHT22;53180;51.344;6.152;2023-04-16T04:47:15;9.00;88.40
33271;DHT22;53180;51.344;6.152;2023-04-16T04:49:43;9.00;88.40
33271;DHT22;53180;51.344;6.152;2023-04-16T04:52:11;9.00;88.40
33271;DHT22;53180;51.344;6.152;2023-04-16T04:54:40;9.10;88.30
33271;DHT22;53180;51.344;6.152;2023-04-16T04:57:08;9.00;88.40
33271;DHT22;53180;51.344;6.152;2023-04-16T04:59:37;9.10;88.40
33271;DHT22;53180;51.344;6.152;2023-04-16T05:02:06;9.10;88.40
33271;DHT22;53180;51.344;6.152;2023-04-16T05:04:35;9.10;88.40
33271;DHT22;53180;51.344;6.152;2023-04-16T05:07:03;9.10;88.40
33271;DHT22;53180;51.344;6.152;2023-04-16T05:09:32;9.10;88.40
33271;DHT22;53180;51.344;6.152;2023-04-16T05:12:00;9.10;88.30
33271;DHT22;53180;51.344;6.152;2023-04-16T05:14:29;9.10;88.30
33271;DHT22;53180;51.344;6.152;2023-04-16T05:16:57;9.10;88.20
33271;DHT22;53180;51.344;6.152;2023-04-16T05:19:27;9.10;88.30
33271;DHT22;53180;51.344;6.152;2023-04-16T05:21:55;9.10;88.40
33271;DHT22;53180;51.344;6.152;2023-04-16T05:24:24;9.10;88.40
33271;DHT22;53180;51.344;6.152;2023-04-16T05:26:52;9.10;88.50
33271;DHT22;53180;51.344;6.152;2023-04-16T05:29:20;9.10;88.40
33271;DHT22;53180;51.344;6.152;2023-04-16T05:31:49;9.10;88.40
33271;DHT22;53180;51.344;6.152;2023-04-16T05:34:17;9.10;88.50
33271;DHT22;53180;51.344;6.152;2023-04-16T05:36:47;9.10;88.40
33271;DHT22;53180;51.344;6.152;2023-04-16T05:39:15;9.10;88.40
33271;DHT22;53180;51.344;6.152;2023-04-16T05:41:44;9.10;88.40
33271;DHT22;53180;51.344;6.152;2023-04-16T05:44:12;9.10;88.50
33271;DHT22;53180;51.344;6.152;2023-04-16T05:46:41;9.20;88.40
33271;DHT22;53180;51.344;6.152;2023-04-16T05:49:10;9.20;88.40
33271;DHT22;53180;51.344;6.152;2023-04-16T05:51:38;9.20;88.40
33271;DHT22;53180;51.344;6.152;2023-04-16T05:54:08;9.20;88.30
33271;DHT22;53180;51.344;6.152;2023-04-16T05:56:36;9.20;88.30
33271;DHT22;53180;51.344;6.152;2023-04-16T05:59:04;9.20;88.30
33271;DHT22;53180;51.344;6.152;2023-04-16T06:01:33;9.20;88.30
33271;DHT22;53180;51.344;6.152;2023-04-16T06:04:01;9.20;88.40
33271;DHT22;53180;51.344;6.152;2023-04-16T06:06:30;9.20;88.40
33271;DHT22;53180;51.344;6.152;2023-04-16T06:08:58;9.20;88.50
33271;DHT22;53180;51.344;6.152;2023-04-16T06:11:28;9.20;88.50
33271;DHT22;53180;51.344;6.152;2023-04-16T06:13:56;9.20;88.50
33271;DHT22;53180;51.344;6.152;2023-04-16T06:16:25;9.20;88.60
33271;DHT22;53180;51.344;6.152;2023-04-16T06:18:53;9.20;88.50
33271;DHT22;53180;51.344;6.152;2023-04-16T06:21:22;9.20;88.50
33271;DHT22;53180;51.344;6.152;2023-04-16T06:23:52;9.20;88.40
33271;DHT22;53180;51.344;6.152;2023-04-16T06:26:21;9.30;88.30
33271;DHT22;53180;51.344;6.152;2023-04-16T06:28:51;9.30;88.50
33271;DHT22;53180;51.344;6.152;2023-04-16T06:31:19;9.30;88.40
33271;DHT22;53180;51.344;6.152;2023-04-16T06:33:47;9.30;88.40
33271;DHT22;53180;51.344;6.152;2023-04-16T06:36:16;9.30;88.40
33271;DHT22;53180;51.344;6.152;2023-04-16T06:38:44;9.40;88.40
33271;DHT22;53180;51.344;6.152;2023-04-16T06:41:13;9.30;88.30
33271;DHT22;53180;51.344;6.152;2023-04-16T06:43:41;9.40;88.30
33271;DHT22;53180;51.344;6.152;2023-04-16T06:46:11;9.40;88.30
33271;DHT22;53180;51.344;6.152;2023-04-16T06:48:39;9.40;88.20
33271;DHT22;53180;51.344;6.152;2023-04-16T06:51:07;9.50;88.20
33271;DHT22;53180;51.344;6.152;2023-04-16T06:53:36;9.50;88.10
33271;DHT22;53180;51.344;6.152;2023-04-16T06:56:05;9.50;88.00
33271;DHT22;53180;51.344;6.152;2023-04-16T06:58:34;9.50;87.90
33271;DHT22;53180;51.344;6.152;2023-04-16T07:01:02;9.50;87.90
33271;DHT22;53180;51.344;6.152;2023-04-16T07:03:32;9.50;87.80
33271;DHT22;53180;51.344;6.152;2023-04-16T07:06:01;9.50;87.70
33271;DHT22;53180;51.344;6.152;2023-04-16T07:08:30;9.50;87.60
33271;DHT22;53180;51.344;6.152;2023-04-16T07:10:58;9.50;87.60
33271;DHT22;53180;51.344;6.152;2023-04-16T07:13:27;9.50;87.50
33271;DHT22;53180;51.344;6.152;2023-04-16T07:15:55;9.50;87.60
33271;DHT22;53180;51.344;6.152;2023-04-16T07:18:23;9.50;87.50
33271;DHT22;53180;51.344;6.152;2023-04-16T07:20:53;9.60;87.40
33271;DHT22;53180;51.344;6.152;2023-04-16T07:23:21;9.60;87.50
33271;DHT22;53180;51.344;6.152;2023-04-16T07:25:50;9.70;87.60
33271;DHT22;53180;51.344;6.152;2023-04-16T07:28:18;9.70;87.40
33271;DHT22;53180;51.344;6.152;2023-04-16T07:30:48;9.70;87.30
33271;DHT22;53180;51.344;6.152;2023-04-16T07:33:17;9.70;87.20
33271;DHT22;53180;51.344;6.152;2023-04-16T07:35:45;9.80;87.10
33271;DHT22;53180;51.344;6.152;2023-04-16T07:38:15;9.80;87.00
33271;DHT22;53180;51.344;6.152;2023-04-16T07:40:43;9.80;87.10
33271;DHT22;53180;51.344;6.152;2023-04-16T07:43:12;9.80;87.00
33271;DHT22;53180;51.344;6.152;2023-04-16T07:45:42;9.80;86.90
33271;DHT22;53180;51.344;6.152;2023-04-16T07:48:10;9.80;87.00
33271;DHT22;53180;51.344;6.152;2023-04-16T07:50:38;9.80;87.10
33271;DHT22;53180;51.344;6.152;2023-04-16T07:53:09;9.80;87.00
33271;DHT22;53180;51.344;6.152;2023-04-16T07:55:39;9.80;87.10
33271;DHT22;53180;51.344;6.152;2023-04-16T07:58:07;9.80;87.10
33271;DHT22;53180;51.344;6.152;2023-04-16T08:00:36;9.90;87.00
33271;DHT22;53180;51.344;6.152;2023-04-16T08:03:05;9.90;87.20
33271;DHT22;53180;51.344;6.152;2023-04-16T08:05:33;9.90;87.30
33271;DHT22;53180;51.344;6.152;2023-04-16T08:08:02;9.90;87.20
33271;DHT22;53180;51.344;6.152;2023-04-16T08:10:30;9.90;87.20
33271;DHT22;53180;51.344;6.152;2023-04-16T08:13:00;9.90;87.10
33271;DHT22;53180;51.344;6.152;2023-04-16T08:15:29;9.90;87.30
33271;DHT22;53180;51.344;6.152;2023-04-16T08:17:58;9.90;87.30
33271;DHT22;53180;51.344;6.152;2023-04-16T08:20:26;9.90;87.40
33271;DHT22;53180;51.344;6.152;2023-04-16T08:22:54;9.90;87.50
33271;DHT22;53180;51.344;6.152;2023-04-16T08:25:23;9.90;87.60
33271;DHT22;53180;51.344;6.152;2023-04-16T08:27:51;9.90;87.60
33271;DHT22;53180;51.344;6.152;2023-04-16T08:30:21;9.90;87.70
33271;DHT22;53180;51.344;6.152;2023-04-16T08:32:49;9.90;87.80
33271;DHT22;53180;51.344;6.152;2023-04-16T08:35:18;9.90;87.60
33271;DHT22;53180;51.344;6.152;2023-04-16T08:37:46;10.00;87.70
33271;DHT22;53180;51.344;6.152;2023-04-16T08:40:14;10.00;87.60
33271;DHT22;53180;51.344;6.152;2023-04-16T08:42:47;10.10;87.70
33271;DHT22;53180;51.344;6.152;2023-04-16T08:45:18;10.20;87.60
33271;DHT22;53180;51.344;6.152;2023-04-16T08:47:49;10.20;87.50
33271;DHT22;53180;51.344;6.152;2023-04-16T08:50:22;10.30;87.10
33271;DHT22;53180;51.344;6.152;2023-04-16T08:52:52;10.30;86.70
33271;DHT22;53180;51.344;6.152;2023-04-16T08:55:29;10.40;86.70
33271;DHT22;53180;51.344;6.152;2023-04-16T08:58:05;10.40;85.80
33271;DHT22;53180;51.344;6.152;2023-04-16T09:00:36;10.40;85.70
33271;DHT22;53180;51.344;6.152;2023-04-16T09:03:08;10.50;85.70
33271;DHT22;53180;51.344;6.152;2023-04-16T09:05:37;10.60;85.70
33271;DHT22;53180;51.344;6.152;2023-04-16T09:08:06;10.70;85.60
33271;DHT22;53180;51.344;6.152;2023-04-16T09:10:35;10.70;85.20
33271;DHT22;53180;51.344;6.152;2023-04-16T09:13:03;10.70;84.70
33271;DHT22;53180;51.344;6.152;2023-04-16T09:15:33;10.70;84.00
33271;DHT22;53180;51.344;6.152;2023-04-16T09:18:02;10.70;84.10
33271;DHT22;53180;51.344;6.152;2023-04-16T09:20:33;10.70;83.80
33271;DHT22;53180;51.344;6.152;2023-04-16T09:23:02;10.80;83.90
33271;DHT22;53180;51.344;6.152;2023-04-16T09:25:32;10.80;83.70
33271;DHT22;53180;51.344;6.152;2023-04-16T09:28:02;10.80;83.50
33271;DHT22;53180;51.344;6.152;2023-04-16T09:30:30;10.90;83.40
33271;DHT22;53180;51.344;6.152;2023-04-16T09:33:15;11.00;83.00
33271;DHT22;53180;51.344;6.152;2023-04-16T09:35:51;10.90;82.70
33271;DHT22;53180;51.344;6.152;2023-04-16T09:38:20;11.10;83.10
33271;DHT22;53180;51.344;6.152;2023-04-16T09:41:04;11.10;82.60
33271;DHT22;53180;51.344;6.152;2023-04-16T09:43:34;11.10;81.90
33271;DHT22;53180;51.344;6.152;2023-04-16T09:46:03;11.10;82.20
33271;DHT22;53180;51.344;6.152;2023-04-16T09:48:34;11.10;82.10
33271;DHT22;53180;51.344;6.152;2023-04-16T09:51:05;11.10;82.20
33271;DHT22;53180;51.344;6.152;2023-04-16T09:53:34;11.10;82.00
33271;DHT22;53180;51.344;6.152;2023-04-16T09:56:05;11.10;82.10
33271;DHT22;53180;51.344;6.152;2023-04-16T09:58:35;11.20;82.00
33271;DHT22;53180;51.344;6.152;2023-04-16T10:01:07;11.20;82.00
33271;DHT22;53180;51.344;6.152;2023-04-16T10:03:37;11.20;82.30
33271;DHT22;53180;51.344;6.152;2023-04-16T10:06:13;11.30;82.20
33271;DHT22;53180;51.344;6.152;2023-04-16T10:08:45;11.30;82.00
33271;DHT22;53180;51.344;6.152;2023-04-16T10:11:16;11.40;81.60
33271;DHT22;53180;51.344;6.152;2023-04-16T10:13:45;11.40;81.40
33271;DHT22;53180;51.344;6.152;2023-04-16T10:16:14;11.50;81.00
33271;DHT22;53180;51.344;6.152;2023-04-16T10:18:45;11.60;81.20
33271;DHT22;53180;51.344;6.152;2023-04-16T10:21:15;11.70;80.60
33271;DHT22;53180;51.344;6.152;2023-04-16T10:23:44;11.80;80.40
33271;DHT22;53180;51.344;6.152;2023-04-16T10:26:13;11.80;80.60
33271;DHT22;53180;51.344;6.152;2023-04-16T10:28:44;11.90;80.00
33271;DHT22;53180;51.344;6.152;2023-04-16T10:31:13;12.00;79.30
33271;DHT22;53180;51.344;6.152;2023-04-16T10:33:43;11.90;79.20
33271;DHT22;53180;51.344;6.152;2023-04-16T10:36:13;12.00;79.10
33271;DHT22;53180;51.344;6.152;2023-04-16T10:38:45;11.90;78.80
33271;DHT22;53180;51.344;6.152;2023-04-16T10:41:14;11.90;79.50
33271;DHT22;53180;51.344;6.152;2023-04-16T10:43:44;12.00;79.00
33271;DHT22;53180;51.344;6.152;2023-04-16T10:46:18;12.10;78.80
33271;DHT22;53180;51.344;6.152;2023-04-16T10:48:48;12.40;78.70
33271;DHT22;53180;51.344;6.152;2023-04-16T10:51:27;12.70;78.80
33271;DHT22;53180;51.344;6.152;2023-04-16T10:54:01;13.00;77.00
33271;DHT22;53180;51.344;6.152;2023-04-16T10:56:31;13.00;76.40
33271;DHT22;53180;51.344;6.152;2023-04-16T10:59:04;13.10;76.10
33271;DHT22;53180;51.344;6.152;2023-04-16T11:01:35;13.20;75.10
33271;DHT22;53180;51.344;6.152;2023-04-16T11:04:27;13.50;75.80
33271;DHT22;53180;51.344;6.152;2023-04-16T11:07:15;13.80;75.40
33271;DHT22;53180;51.344;6.152;2023-04-16T11:09:49;14.00;73.70
33271;DHT22;53180;51.344;6.152;2023-04-16T11:12:20;14.30;73.00
33271;DHT22;53180;51.344;6.152;2023-04-16T11:14:50;14.40;71.00
33271;DHT22;53180;51.344;6.152;2023-04-16T11:17:20;14.20;69.70
33271;DHT22;53180;51.344;6.152;2023-04-16T11:19:49;14.30;70.70
33271;DHT22;53180;51.344;6.152;2023-04-16T11:22:21;14.30;69.20
33271;DHT22;53180;51.344;6.152;2023-04-16T11:24:53;14.30;69.40
33271;DHT22;53180;51.344;6.152;2023-04-16T11:27:22;14.20;69.80
33271;DHT22;53180;51.344;6.152;2023-04-16T11:29:58;14.20;69.40
33271;DHT22;53180;51.344;6.152;2023-04-16T11:32:30;14.20;69.70
33271;DHT22;53180;51.344;6.152;2023-04-16T11:35:00;14.20;71.30
33271;DHT22;53180;51.344;6.152;2023-04-16T11:37:33;14.20;70.90
33271;DHT22;53180;51.344;6.152;2023-04-16T11:40:04;14.20;69.90
33271;DHT22;53180;51.344;6.152;2023-04-16T11:42:35;14.20;69.50
33271;DHT22;53180;51.344;6.152;2023-04-16T11:45:07;14.20;68.70
33271;DHT22;53180;51.344;6.152;2023-04-16T11:47:44;14.20;70.50
33271;DHT22;53180;51.344;6.152;2023-04-16T11:50:17;14.20;70.30
33271;DHT22;53180;51.344;6.152;2023-04-16T11:52:48;14.20;69.70
33271;DHT22;53180;51.344;6.152;2023-04-16T11:55:18;14.20;69.90
33271;DHT22;53180;51.344;6.152;2023-04-16T11:57:47;14.20;70.20
33271;DHT22;53180;51.344;6.152;2023-04-16T12:00:17;14.10;70.90
33271;DHT22;53180;51.344;6.152;2023-04-16T12:02:51;14.20;71.10
33271;DHT22;53180;51.344;6.152;2023-04-16T12:05:29;14.20;70.50
33271;DHT22;53180;51.344;6.152;2023-04-16T12:08:02;14.20;70.60
33271;DHT22;53180;51.344;6.152;2023-04-16T12:10:32;14.20;70.60
33271;DHT22;53180;51.344;6.152;2023-04-16T12:13:11;14.20;70.90
33271;DHT22;53180;51.344;6.152;2023-04-16T12:15:47;14.10;70.00
33271;DHT22;53180;51.344;6.152;2023-04-16T12:18:18;13.90;70.10
33271;DHT22;53180;51.344;6.152;2023-04-16T12:20:48;13.90;70.50
33271;DHT22;53180;51.344;6.152;2023-04-16T12:23:26;13.80;70.50
33271;DHT22;53180;51.344;6.152;2023-04-16T12:25:56;13.80;71.30
33271;DHT22;53180;51.344;6.152;2023-04-16T12:28:30;13.90;71.40
33271;DHT22;53180;51.344;6.152;2023-04-16T12:30:59;13.90;71.00
33271;DHT22;53180;51.344;6.152;2023-04-16T12:33:28;13.90;69.80
33271;DHT22;53180;51.344;6.152;2023-04-16T12:35:57;13.90;70.20
33271;DHT22;53180;51.344;6.152;2023-04-16T12:38:27;13.90;70.30
33271;DHT22;53180;51.344;6.152;2023-04-16T12:40:55;14.00;71.00
33271;DHT22;53180;51.344;6.152;2023-04-16T12:43:24;14.00;70.20
33271;DHT22;53180;51.344;6.152;2023-04-16T12:45:53;14.00;70.30
33271;DHT22;53180;51.344;6.152;2023-04-16T12:48:22;14.10;70.00
33271;DHT22;53180;51.344;6.152;2023-04-16T12:50:52;14.10;70.20
33271;DHT22;53180;51.344;6.152;2023-04-16T12:53:21;14.10;70.10
33271;DHT22;53180;51.344;6.152;2023-04-16T12:55:51;14.10;69.80
33271;DHT22;53180;51.344;6.152;2023-04-16T12:58:19;14.20;69.90
33271;DHT22;53180;51.344;6.152;2023-04-16T13:00:47;14.20;70.20
33271;DHT22;53180;51.344;6.152;2023-04-16T13:03:16;14.20;69.50
33271;DHT22;53180;51.344;6.152;2023-04-16T13:05:46;14.20;69.90
33271;DHT22;53180;51.344;6.152;2023-04-16T13:08:15;14.20;69.60
33271;DHT22;53180;51.344;6.152;2023-04-16T13:10:43;14.20;69.60
33271;DHT22;53180;51.344;6.152;2023-04-16T13:13:13;14.20;69.50
33271;DHT22;53180;51.344;6.152;2023-04-16T13:15:42;14.20;69.00
33271;DHT22;53180;51.344;6.152;2023-04-16T13:18:10;14.20;69.30
33271;DHT22;53180;51.344;6.152;2023-04-16T13:20:39;14.20;69.30
33271;DHT22;53180;51.344;6.152;2023-04-16T13:23:07;14.20;68.70
33271;DHT22;53180;51.344;6.152;2023-04-16T13:25:35;14.20;68.90
33271;DHT22;53180;51.344;6.152;2023-04-16T13:28:04;14.20;68.40
33271;DHT22;53180;51.344;6.152;2023-04-16T13:30:34;14.20;69.10
33271;DHT22;53180;51.344;6.152;2023-04-16T13:33:02;14.20;68.70
33271;DHT22;53180;51.344;6.152;2023-04-16T13:35:31;14.20;69.00
33271;DHT22;53180;51.344;6.152;2023-04-16T13:37:59;14.20;68.70
33271;DHT22;53180;51.344;6.152;2023-04-16T13:40:30;14.20;69.20
33271;DHT22;53180;51.344;6.152;2023-04-16T13:42:59;14.20;70.00
33271;DHT22;53180;51.344;6.152;2023-04-16T13:45:30;14.20;69.70
33271;DHT22;53180;51.344;6.152;2023-04-16T13:48:01;14.40;71.30
33271;DHT22;53180;51.344;6.152;2023-04-16T13:50:29;14.60;70.60
33271;DHT22;53180;51.344;6.152;2023-04-16T13:52:57;14.70;69.50
33271;DHT22;53180;51.344;6.152;2023-04-16T13:55:26;14.70;70.60
33271;DHT22;53180;51.344;6.152;2023-04-16T13:57:55;14.80;70.20
33271;DHT22;53180;51.344;6.152;2023-04-16T14:00:24;14.90;71.00
33271;DHT22;53180;51.344;6.152;2023-04-16T14:02:53;15.00;70.80
33271;DHT22;53180;51.344;6.152;2023-04-16T14:05:23;15.00;69.70
33271;DHT22;53180;51.344;6.152;2023-04-16T14:07:53;14.90;69.20
33271;DHT22;53180;51.344;6.152;2023-04-16T14:10:21;15.00;69.20
33271;DHT22;53180;51.344;6.152;2023-04-16T14:12:49;14.90;69.00
33271;DHT22;53180;51.344;6.152;2023-04-16T14:15:18;14.90;70.00
33271;DHT22;53180;51.344;6.152;2023-04-16T14:17:47;14.90;70.00
33271;DHT22;53180;51.344;6.152;2023-04-16T14:20:15;14.80;69.70
33271;DHT22;53180;51.344;6.152;2023-04-16T14:22:45;14.70;70.10
33271;DHT22;53180;51.344;6.152;2023-04-16T14:25:13;14.80;70.40
33271;DHT22;53180;51.344;6.152;2023-04-16T14:27:42;14.90;70.40
33271;DHT22;53180;51.344;6.152;2023-04-16T14:30:11;14.90;69.40
33271;DHT22;53180;51.344;6.152;2023-04-16T14:32:39;14.90;69.90
33271;DHT22;53180;51.344;6.152;2023-04-16T14:35:08;14.80;70.10
33271;DHT22;53180;51.344;6.152;2023-04-16T14:37:36;14.80;70.60
33271;DHT22;53180;51.344;6.152;2023-04-16T14:40:07;14.90;70.90
33271;DHT22;53180;51.344;6.152;2023-04-16T14:42:38;14.80;70.30
33271;DHT22;53180;51.344;6.152;2023-04-16T14:45:07;14.70;71.10
33271;DHT22;53180;51.344;6.152;2023-04-16T14:47:37;14.50;71.60
33271;DHT22;53180;51.344;6.152;2023-04-16T14:50:12;14.50;71.00
33271;DHT22;53180;51.344;6.152;2023-04-16T14:52:41;14.30;71.60
33271;DHT22;53180;51.344;6.152;2023-04-16T14:55:11;14.10;72.10
33271;DHT22;53180;51.344;6.152;2023-04-16T14:57:39;13.90;73.00
33271;DHT22;53180;51.344;6.152;2023-04-16T15:00:09;13.90;74.30
33271;DHT22;53180;51.344;6.152;2023-04-16T15:02:39;13.80;74.50
33271;DHT22;53180;51.344;6.152;2023-04-16T15:05:09;13.80;74.70
33271;DHT22;53180;51.344;6.152;2023-04-16T15:07:37;13.80;74.90
33271;DHT22;53180;51.344;6.152;2023-04-16T15:10:07;13.80;74.40
33271;DHT22;53180;51.344;6.152;2023-04-16T15:12:38;13.70;73.90
33271;DHT22;53180;51.344;6.152;2023-04-16T15:15:07;13.70;74.00
33271;DHT22;53180;51.344;6.152;2023-04-16T15:17:37;13.70;73.90
33271;DHT22;53180;51.344;6.152;2023-04-16T15:20:07;13.70;74.00
33271;DHT22;53180;51.344;6.152;2023-04-16T15:22:36;13.70;73.80
33271;DHT22;53180;51.344;6.152;2023-04-16T15:25:05;13.80;74.10
33271;DHT22;53180;51.344;6.152;2023-04-16T15:27:34;13.80;74.20
33271;DHT22;53180;51.344;6.152;2023-04-16T15:30:06;13.80;74.10
33271;DHT22;53180;51.344;6.152;2023-04-16T15:32:35;13.90;73.90
33271;DHT22;53180;51.344;6.152;2023-04-16T15:35:03;13.90;73.80
33271;DHT22;53180;51.344;6.152;2023-04-16T15:37:33;13.90;73.20
33271;DHT22;53180;51.344;6.152;2023-04-16T15:40:02;13.80;73.10
33271;DHT22;53180;51.344;6.152;2023-04-16T15:42:31;13.80;72.90
33271;DHT22;53180;51.344;6.152;2023-04-16T15:44:59;13.80;73.20
33271;DHT22;53180;51.344;6.152;2023-04-16T15:47:29;13.70;73.30
33271;DHT22;53180;51.344;6.152;2023-04-16T15:49:58;13.70;73.10
33271;DHT22;53180;51.344;6.152;2023-04-16T15:52:26;13.60;73.10
33271;DHT22;53180;51.344;6.152;2023-04-16T15:54:55;13.60;73.20